WZZ306 EDDS-LHBP
Flight info
| Callsign | WZZ306 |
|---|---|
| Flight time | 1h 0m |
| Altitude | 35000 |
| Route | ABTAL4B ABTAL L173 RIXED Y161 RIDAR Z98 MIQ L605 BIBAG Q104 AKIMA DCT MAREG DCT ANEXA |
| Aircraft | A321/M-SDE3FGHIRWY/LB1 |
Departure
| Time | 2026-05-06 13:22 |
|---|---|
| Airport | Stuttgart Airport (EDDS) |
Arrival
| Time | 2026-05-06 14:23 |
|---|---|
| Airport | Budapest Liszt Ferenc International Airport (LHBP) |
| Time | Latitude | Longitude | Altitude | Speed | Heading |
|---|---|---|---|---|---|
| 2026-05-06 12:51 | 48.68947 | 9.20220 | 1294 ft | 0 kts | 163° |
| 2026-05-06 13:16 | 48.68940 | 9.20223 | 1293 ft | 4 kts | 163° |
| 2026-05-06 13:16 | 48.68890 | 9.20247 | 1290 ft | 10 kts | 153° |
| 2026-05-06 13:17 | 48.68898 | 9.20349 | 1287 ft | 13 kts | 72° |
| 2026-05-06 13:17 | 48.68928 | 9.20511 | 1283 ft | 19 kts | 75° |
| 2026-05-06 13:17 | 48.68938 | 9.20730 | 1277 ft | 24 kts | 112° |
| 2026-05-06 13:17 | 48.68935 | 9.20998 | 1275 ft | 29 kts | 73° |
| 2026-05-06 13:18 | 48.68994 | 9.21306 | 1268 ft | 31 kts | 74° |
| 2026-05-06 13:18 | 48.69054 | 9.21624 | 1258 ft | 32 kts | 74° |
| 2026-05-06 13:18 | 48.69117 | 9.21953 | 1249 ft | 33 kts | 74° |
| 2026-05-06 13:18 | 48.69182 | 9.22297 | 1235 ft | 35 kts | 74° |
| 2026-05-06 13:19 | 48.69249 | 9.22650 | 1230 ft | 34 kts | 74° |
| 2026-05-06 13:19 | 48.69311 | 9.22978 | 1223 ft | 31 kts | 74° |
| 2026-05-06 13:19 | 48.69371 | 9.23290 | 1217 ft | 30 kts | 74° |
| 2026-05-06 13:19 | 48.69429 | 9.23598 | 1210 ft | 30 kts | 74° |
| 2026-05-06 13:20 | 48.69484 | 9.23893 | 1204 ft | 28 kts | 74° |
| 2026-05-06 13:20 | 48.69540 | 9.24185 | 1197 ft | 30 kts | 75° |
| 2026-05-06 13:20 | 48.69490 | 9.24325 | 1190 ft | 15 kts | 164° |
| 2026-05-06 13:20 | 48.69392 | 9.24327 | 1191 ft | 13 kts | 223° |
| 2026-05-06 13:21 | 48.69381 | 9.24281 | 1192 ft | 0 kts | 255° |
| 2026-05-06 13:21 | 48.69324 | 9.23971 | 1198 ft | 66 kts | 254° |
| 2026-05-06 13:22 | 48.69136 | 9.22981 | 1218 ft | 127 kts | 254° |
| 2026-05-06 13:22 | 48.68847 | 9.21455 | 1329 ft | 167 kts | 254° |
| 2026-05-06 13:22 | 48.68533 | 9.19793 | 2086 ft | 162 kts | 254° |
| 2026-05-06 13:22 | 48.68221 | 9.18161 | 2781 ft | 164 kts | 254° |
| 2026-05-06 13:23 | 48.67886 | 9.16423 | 3101 ft | 185 kts | 252° |
| 2026-05-06 13:23 | 48.67501 | 9.14451 | 3333 ft | 206 kts | 253° |
| 2026-05-06 13:23 | 48.67062 | 9.12222 | 3590 ft | 228 kts | 254° |
| 2026-05-06 13:23 | 48.66389 | 9.10063 | 4157 ft | 237 kts | 227° |
| 2026-05-06 13:24 | 48.64937 | 9.08880 | 4905 ft | 241 kts | 188° |
| 2026-05-06 13:24 | 48.63297 | 9.09300 | 5675 ft | 245 kts | 154° |
| 2026-05-06 13:24 | 48.61938 | 9.10813 | 6396 ft | 249 kts | 128° |
| 2026-05-06 13:24 | 48.61289 | 9.13253 | 7051 ft | 257 kts | 97° |
| 2026-05-06 13:25 | 48.61361 | 9.15939 | 7798 ft | 258 kts | 83° |
| 2026-05-06 13:25 | 48.61573 | 9.18634 | 8529 ft | 258 kts | 87° |
| 2026-05-06 13:25 | 48.61710 | 9.21349 | 9225 ft | 261 kts | 89° |
| 2026-05-06 13:25 | 48.61822 | 9.24105 | 9789 ft | 270 kts | 88° |
| 2026-05-06 13:26 | 48.62193 | 9.27006 | 10021 ft | 292 kts | 74° |
| 2026-05-06 13:26 | 48.62968 | 9.29931 | 10302 ft | 311 kts | 70° |
| 2026-05-06 13:26 | 48.63843 | 9.33055 | 10436 ft | 333 kts | 69° |
| 2026-05-06 13:26 | 48.64777 | 9.36364 | 10715 ft | 349 kts | 69° |
| 2026-05-06 13:27 | 48.65745 | 9.39772 | 11236 ft | 355 kts | 69° |
| 2026-05-06 13:27 | 48.66727 | 9.43230 | 11818 ft | 360 kts | 69° |
| 2026-05-06 13:27 | 48.67717 | 9.46729 | 12436 ft | 364 kts | 69° |
| 2026-05-06 13:27 | 48.68717 | 9.50279 | 13054 ft | 368 kts | 69° |
| 2026-05-06 13:28 | 48.69723 | 9.53858 | 13711 ft | 371 kts | 69° |
| 2026-05-06 13:28 | 48.70738 | 9.57470 | 14287 ft | 374 kts | 69° |
| 2026-05-06 13:28 | 48.71760 | 9.61111 | 14866 ft | 378 kts | 69° |
| 2026-05-06 13:28 | 48.72793 | 9.64807 | 15356 ft | 384 kts | 69° |
| 2026-05-06 13:29 | 48.73837 | 9.68556 | 15879 ft | 388 kts | 69° |
| 2026-05-06 13:29 | 48.74888 | 9.72345 | 16451 ft | 391 kts | 69° |
| 2026-05-06 13:29 | 48.75947 | 9.76168 | 17012 ft | 395 kts | 69° |
| 2026-05-06 13:29 | 48.77013 | 9.80015 | 17581 ft | 398 kts | 69° |
| 2026-05-06 13:30 | 48.78087 | 9.83896 | 18135 ft | 401 kts | 69° |
| 2026-05-06 13:30 | 48.79156 | 9.87752 | 18639 ft | 404 kts | 69° |
| 2026-05-06 13:30 | 48.80246 | 9.91690 | 19165 ft | 407 kts | 69° |
| 2026-05-06 13:30 | 48.81341 | 9.95669 | 19688 ft | 410 kts | 69° |
| 2026-05-06 13:31 | 48.82439 | 9.99674 | 20165 ft | 413 kts | 69° |
| 2026-05-06 13:31 | 48.83544 | 10.03712 | 20681 ft | 416 kts | 69° |
| 2026-05-06 13:31 | 48.84527 | 10.07840 | 21168 ft | 417 kts | 77° |
| 2026-05-06 13:31 | 48.85026 | 10.12166 | 21623 ft | 416 kts | 89° |
| 2026-05-06 13:32 | 48.85001 | 10.16547 | 22069 ft | 416 kts | 99° |
| 2026-05-06 13:32 | 48.84652 | 10.20918 | 22539 ft | 418 kts | 101° |
| 2026-05-06 13:32 | 48.84292 | 10.25321 | 22998 ft | 421 kts | 101° |
| 2026-05-06 13:32 | 48.83930 | 10.29754 | 23420 ft | 424 kts | 101° |
| 2026-05-06 13:33 | 48.83562 | 10.34209 | 23786 ft | 426 kts | 103° |
| 2026-05-06 13:33 | 48.82868 | 10.38569 | 24129 ft | 424 kts | 113° |
| 2026-05-06 13:33 | 48.81687 | 10.42638 | 24473 ft | 421 kts | 124° |
| 2026-05-06 13:33 | 48.80081 | 10.46315 | 24818 ft | 417 kts | 133° |
| 2026-05-06 13:34 | 48.78146 | 10.49567 | 25144 ft | 416 kts | 138° |
| 2026-05-06 13:34 | 48.76146 | 10.52758 | 25460 ft | 418 kts | 139° |
| 2026-05-06 13:34 | 48.74139 | 10.55955 | 25898 ft | 418 kts | 140° |
| 2026-05-06 13:34 | 48.72131 | 10.59155 | 26274 ft | 420 kts | 140° |
| 2026-05-06 13:35 | 48.70140 | 10.62328 | 26620 ft | 422 kts | 140° |
| 2026-05-06 13:35 | 48.68086 | 10.65597 | 26960 ft | 424 kts | 140° |
| 2026-05-06 13:35 | 48.66076 | 10.68794 | 27284 ft | 426 kts | 140° |
| 2026-05-06 13:35 | 48.64024 | 10.72056 | 27614 ft | 429 kts | 140° |
| 2026-05-06 13:36 | 48.62030 | 10.75431 | 27927 ft | 436 kts | 134° |
| 2026-05-06 13:36 | 48.60387 | 10.79364 | 28250 ft | 448 kts | 123° |
| 2026-05-06 13:36 | 48.59227 | 10.83793 | 28522 ft | 461 kts | 112° |
| 2026-05-06 13:36 | 48.58628 | 10.88605 | 28800 ft | 473 kts | 100° |
| 2026-05-06 13:37 | 48.58475 | 10.93595 | 29046 ft | 478 kts | 98° |
| 2026-05-06 13:37 | 48.58346 | 10.98614 | 29316 ft | 481 kts | 98° |
| 2026-05-06 13:37 | 48.58209 | 11.03688 | 29602 ft | 483 kts | 98° |
| 2026-05-06 13:37 | 48.58065 | 11.08767 | 29870 ft | 486 kts | 98° |
| 2026-05-06 13:38 | 48.57916 | 11.13875 | 30118 ft | 488 kts | 98° |
| 2026-05-06 13:38 | 48.57789 | 11.19013 | 30372 ft | 491 kts | 97° |
| 2026-05-06 13:38 | 48.57694 | 11.24163 | 30730 ft | 490 kts | 97° |
| 2026-05-06 13:38 | 48.57613 | 11.29307 | 31103 ft | 490 kts | 97° |
| 2026-05-06 13:39 | 48.57533 | 11.34458 | 31401 ft | 490 kts | 97° |
| 2026-05-06 13:39 | 48.57449 | 11.39606 | 31682 ft | 491 kts | 97° |
| 2026-05-06 13:39 | 48.57354 | 11.44772 | 31997 ft | 491 kts | 97° |
| 2026-05-06 13:39 | 48.57248 | 11.49925 | 32322 ft | 491 kts | 97° |
| 2026-05-06 13:40 | 48.57136 | 11.55064 | 32654 ft | 491 kts | 97° |
| 2026-05-06 13:40 | 48.56896 | 11.60176 | 32979 ft | 485 kts | 104° |
| 2026-05-06 13:40 | 48.56252 | 11.65133 | 33293 ft | 480 kts | 109° |
| 2026-05-06 13:40 | 48.55528 | 11.70055 | 33610 ft | 480 kts | 109° |
| 2026-05-06 13:41 | 48.54804 | 11.74977 | 33895 ft | 480 kts | 109° |
| 2026-05-06 13:41 | 48.54085 | 11.79891 | 34146 ft | 479 kts | 109° |
| 2026-05-06 13:41 | 48.53370 | 11.84794 | 34438 ft | 478 kts | 109° |
| 2026-05-06 13:41 | 48.52655 | 11.89685 | 34689 ft | 478 kts | 109° |
| 2026-05-06 13:42 | 48.51934 | 11.94576 | 34752 ft | 476 kts | 109° |
| 2026-05-06 13:42 | 48.50489 | 12.04283 | 34763 ft | 473 kts | 109° |
| 2026-05-06 13:43 | 48.49035 | 12.13969 | 34766 ft | 473 kts | 109° |
| 2026-05-06 13:43 | 48.47573 | 12.23678 | 34765 ft | 480 kts | 109° |
| 2026-05-06 13:44 | 48.46065 | 12.33603 | 34761 ft | 488 kts | 109° |
| 2026-05-06 13:44 | 48.44547 | 12.43595 | 34761 ft | 489 kts | 109° |
| 2026-05-06 13:45 | 48.43028 | 12.53520 | 34762 ft | 490 kts | 110° |
| 2026-05-06 13:45 | 48.40716 | 12.68490 | 34761 ft | 490 kts | 110° |
| 2026-05-06 13:46 | 48.39836 | 12.78731 | 34764 ft | 502 kts | 94° |
| 2026-05-06 13:46 | 48.40159 | 12.89274 | 34770 ft | 505 kts | 92° |
| 2026-05-06 13:47 | 48.40469 | 12.99831 | 34771 ft | 505 kts | 93° |
| 2026-05-06 13:47 | 48.40765 | 13.10401 | 34747 ft | 506 kts | 93° |
| 2026-05-06 13:48 | 48.41053 | 13.20983 | 34755 ft | 506 kts | 93° |
| 2026-05-06 13:48 | 48.41274 | 13.31573 | 34759 ft | 504 kts | 98° |
| 2026-05-06 13:49 | 48.40818 | 13.42050 | 34770 ft | 502 kts | 100° |
| 2026-05-06 13:49 | 48.40338 | 13.52531 | 34742 ft | 502 kts | 100° |
| 2026-05-06 13:50 | 48.39853 | 13.63045 | 34751 ft | 503 kts | 100° |
| 2026-05-06 13:50 | 48.39344 | 13.73547 | 34761 ft | 504 kts | 101° |
| 2026-05-06 13:51 | 48.38820 | 13.84068 | 34771 ft | 504 kts | 101° |
| 2026-05-06 13:51 | 48.38380 | 13.92813 | 34743 ft | 504 kts | 101° |
| 2026-05-06 13:52 | 48.37772 | 14.05043 | 34765 ft | 504 kts | 100° |
| 2026-05-06 13:52 | 48.37226 | 14.15560 | 34774 ft | 505 kts | 101° |
| 2026-05-06 13:53 | 48.36760 | 14.24388 | 34782 ft | 505 kts | 101° |
| 2026-05-06 13:53 | 48.36199 | 14.34902 | 34764 ft | 505 kts | 101° |
| 2026-05-06 13:54 | 48.35628 | 14.45436 | 34772 ft | 505 kts | 101° |
| 2026-05-06 13:54 | 48.35078 | 14.55369 | 34780 ft | 505 kts | 101° |
| 2026-05-06 13:55 | 48.34485 | 14.65888 | 34610 ft | 505 kts | 101° |
| 2026-05-06 13:55 | 48.33928 | 14.75715 | 34769 ft | 504 kts | 101° |
| 2026-05-06 13:56 | 48.33353 | 14.85611 | 34686 ft | 507 kts | 101° |
| 2026-05-06 13:56 | 48.32735 | 14.96099 | 34781 ft | 506 kts | 100° |
| 2026-05-06 13:57 | 48.32103 | 15.06633 | 34793 ft | 506 kts | 100° |
| 2026-05-06 13:57 | 48.31468 | 15.17162 | 34793 ft | 506 kts | 100° |
| 2026-05-06 13:58 | 48.30829 | 15.27616 | 34775 ft | 505 kts | 100° |
| 2026-05-06 13:58 | 48.30751 | 15.28866 | 34778 ft | 505 kts | 100° |
| 2026-05-06 13:59 | 48.30200 | 15.37772 | 34785 ft | 505 kts | 100° |
| 2026-05-06 13:59 | 48.29529 | 15.48260 | 34790 ft | 505 kts | 100° |
| 2026-05-06 14:00 | 48.29286 | 15.52032 | 34791 ft | 505 kts | 100° |
| 2026-05-06 14:01 | 48.28933 | 15.57515 | 34757 ft | 504 kts | 101° |
| 2026-05-06 14:01 | 48.28234 | 15.68233 | 34767 ft | 503 kts | 100° |
| 2026-05-06 14:02 | 48.27771 | 15.75249 | 34734 ft | 501 kts | 100° |
| 2026-05-06 14:02 | 48.27084 | 15.85628 | 34732 ft | 499 kts | 100° |
| 2026-05-06 14:03 | 48.24622 | 16.21335 | 34766 ft | 504 kts | 99° |
| 2026-05-06 14:03 | 48.21619 | 16.62913 | 34786 ft | 505 kts | 99° |
| 2026-05-06 14:04 | 48.18905 | 16.97408 | 34070 ft | 503 kts | 107° |
| 2026-05-06 14:04 | 48.17920 | 17.02416 | 33838 ft | 501 kts | 112° |
| 2026-05-06 14:04 | 48.16832 | 17.07386 | 33520 ft | 502 kts | 112° |
| 2026-05-06 14:05 | 48.15738 | 17.12377 | 32628 ft | 505 kts | 112° |
| 2026-05-06 14:05 | 48.14651 | 17.17369 | 31822 ft | 505 kts | 112° |
| 2026-05-06 14:05 | 48.13571 | 17.22365 | 31119 ft | 502 kts | 111° |
| 2026-05-06 14:05 | 48.12495 | 17.27361 | 30273 ft | 503 kts | 111° |
| 2026-05-06 14:06 | 48.11427 | 17.32314 | 29458 ft | 500 kts | 111° |
| 2026-05-06 14:06 | 48.10355 | 17.37264 | 28441 ft | 497 kts | 111° |
| 2026-05-06 14:06 | 48.09292 | 17.42164 | 26754 ft | 496 kts | 111° |
| 2026-05-06 14:06 | 48.08223 | 17.47078 | 25949 ft | 495 kts | 111° |
| 2026-05-06 14:07 | 48.07155 | 17.51974 | 24844 ft | 499 kts | 111° |
| 2026-05-06 14:07 | 48.06069 | 17.56920 | 23859 ft | 500 kts | 111° |
| 2026-05-06 14:07 | 48.04981 | 17.61847 | 22931 ft | 498 kts | 111° |
| 2026-05-06 14:07 | 48.03906 | 17.66717 | 22212 ft | 490 kts | 111° |
| 2026-05-06 14:08 | 48.02838 | 17.71540 | 21427 ft | 485 kts | 111° |
| 2026-05-06 14:08 | 48.01806 | 17.76200 | 20661 ft | 472 kts | 111° |
| 2026-05-06 14:08 | 48.00787 | 17.80815 | 19649 ft | 462 kts | 111° |
| 2026-05-06 14:08 | 47.99799 | 17.85291 | 18921 ft | 446 kts | 111° |
| 2026-05-06 14:09 | 47.98841 | 17.89610 | 18195 ft | 432 kts | 111° |
| 2026-05-06 14:09 | 47.97904 | 17.93800 | 17416 ft | 420 kts | 112° |
| 2026-05-06 14:09 | 47.96981 | 17.97900 | 16712 ft | 416 kts | 112° |
| 2026-05-06 14:09 | 47.96056 | 18.02003 | 16012 ft | 418 kts | 112° |
| 2026-05-06 14:10 | 47.95126 | 18.06117 | 15304 ft | 418 kts | 111° |
| 2026-05-06 14:10 | 47.94198 | 18.10231 | 14623 ft | 418 kts | 111° |
| 2026-05-06 14:10 | 47.93274 | 18.14344 | 13973 ft | 417 kts | 111° |
| 2026-05-06 14:10 | 47.92353 | 18.18430 | 13286 ft | 416 kts | 111° |
| 2026-05-06 14:11 | 47.91433 | 18.22500 | 12658 ft | 411 kts | 111° |
| 2026-05-06 14:11 | 47.90523 | 18.26514 | 12062 ft | 407 kts | 112° |
| 2026-05-06 14:11 | 47.89620 | 18.30490 | 11461 ft | 403 kts | 111° |
| 2026-05-06 14:11 | 47.88744 | 18.34339 | 11159 ft | 390 kts | 112° |
| 2026-05-06 14:12 | 47.87891 | 18.38084 | 11037 ft | 374 kts | 112° |
| 2026-05-06 14:12 | 47.87073 | 18.41688 | 10547 ft | 368 kts | 112° |
| 2026-05-06 14:12 | 47.86021 | 18.45018 | 10185 ft | 338 kts | 125° |
| 2026-05-06 14:12 | 47.84858 | 18.47890 | 9995 ft | 309 kts | 125° |
| 2026-05-06 14:13 | 47.83777 | 18.50565 | 9810 ft | 297 kts | 125° |
| 2026-05-06 14:13 | 47.82712 | 18.53176 | 9549 ft | 292 kts | 126° |
| 2026-05-06 14:13 | 47.81656 | 18.55738 | 9222 ft | 289 kts | 126° |
| 2026-05-06 14:13 | 47.80605 | 18.58276 | 8866 ft | 288 kts | 126° |
| 2026-05-06 14:14 | 47.79558 | 18.60803 | 8517 ft | 286 kts | 126° |
| 2026-05-06 14:14 | 47.78516 | 18.63317 | 8169 ft | 284 kts | 126° |
| 2026-05-06 14:14 | 47.77481 | 18.65811 | 7836 ft | 282 kts | 126° |
| 2026-05-06 14:14 | 47.76456 | 18.68279 | 7555 ft | 278 kts | 127° |
| 2026-05-06 14:15 | 47.75438 | 18.70729 | 7434 ft | 280 kts | 126° |
| 2026-05-06 14:15 | 47.74414 | 18.73196 | 7311 ft | 280 kts | 126° |
| 2026-05-06 14:15 | 47.73334 | 18.75598 | 7186 ft | 277 kts | 134° |
| 2026-05-06 14:15 | 47.72061 | 18.77733 | 7067 ft | 276 kts | 136° |
| 2026-05-06 14:16 | 47.70788 | 18.79852 | 6919 ft | 275 kts | 137° |
| 2026-05-06 14:16 | 47.69520 | 18.81962 | 6780 ft | 272 kts | 137° |
| 2026-05-06 14:16 | 47.68271 | 18.84036 | 6718 ft | 273 kts | 137° |
| 2026-05-06 14:16 | 47.66987 | 18.86112 | 6639 ft | 273 kts | 139° |
| 2026-05-06 14:17 | 47.65682 | 18.88156 | 6371 ft | 272 kts | 138° |
| 2026-05-06 14:17 | 47.64408 | 18.90228 | 6023 ft | 271 kts | 137° |
| 2026-05-06 14:17 | 47.63146 | 18.92304 | 5666 ft | 271 kts | 136° |
| 2026-05-06 14:17 | 47.61880 | 18.94378 | 5312 ft | 270 kts | 137° |
| 2026-05-06 14:18 | 47.60619 | 18.96442 | 4959 ft | 270 kts | 137° |
| 2026-05-06 14:18 | 47.59357 | 18.98503 | 4603 ft | 271 kts | 137° |
| 2026-05-06 14:18 | 47.58092 | 19.00571 | 4236 ft | 269 kts | 137° |
| 2026-05-06 14:18 | 47.56856 | 19.02591 | 3888 ft | 260 kts | 137° |
| 2026-05-06 14:19 | 47.55679 | 19.04514 | 3559 ft | 245 kts | 139° |
| 2026-05-06 14:19 | 47.54570 | 19.06324 | 3278 ft | 229 kts | 137° |
| 2026-05-06 14:19 | 47.53520 | 19.08032 | 2958 ft | 218 kts | 138° |
| 2026-05-06 14:19 | 47.52534 | 19.09638 | 2708 ft | 202 kts | 138° |
| 2026-05-06 14:20 | 47.51633 | 19.11107 | 2454 ft | 183 kts | 137° |
| 2026-05-06 14:20 | 47.50821 | 19.12428 | 2203 ft | 166 kts | 139° |
| 2026-05-06 14:20 | 47.50073 | 19.13642 | 1993 ft | 156 kts | 140° |
| 2026-05-06 14:20 | 47.49350 | 19.14811 | 1792 ft | 152 kts | 141° |
| 2026-05-06 14:21 | 47.48645 | 19.15961 | 1595 ft | 153 kts | 139° |
| 2026-05-06 14:21 | 47.47927 | 19.17121 | 1395 ft | 153 kts | 140° |
| 2026-05-06 14:21 | 47.47215 | 19.18286 | 1199 ft | 151 kts | 137° |
| 2026-05-06 14:21 | 47.46506 | 19.19444 | 960 ft | 153 kts | 137° |
| 2026-05-06 14:22 | 47.45766 | 19.20651 | 766 ft | 159 kts | 138° |
| 2026-05-06 14:22 | 47.45028 | 19.21839 | 570 ft | 158 kts | 141° |
| 2026-05-06 14:22 | 47.44309 | 19.22990 | 453 ft | 139 kts | 134° |
| 2026-05-06 14:22 | 47.43755 | 19.23880 | 455 ft | 97 kts | 132° |
| 2026-05-06 14:23 | 47.43362 | 19.24517 | 452 ft | 60 kts | 132° |
| 2026-05-06 14:23 | 47.43158 | 19.24845 | 456 ft | 38 kts | 131° |
| 2026-05-06 14:23 | 47.43123 | 19.25085 | 456 ft | 24 kts | 53° |
| 2026-05-06 14:23 | 47.43246 | 19.25255 | 455 ft | 24 kts | 41° |
| 2026-05-06 14:24 | 47.43373 | 19.25425 | 457 ft | 25 kts | 43° |
| 2026-05-06 14:24 | 47.43503 | 19.25602 | 457 ft | 26 kts | 43° |
| 2026-05-06 14:24 | 47.43634 | 19.25778 | 455 ft | 25 kts | 41° |
| 2026-05-06 14:24 | 47.43734 | 19.25954 | 457 ft | 18 kts | 91° |
| 2026-05-06 14:25 | 47.43675 | 19.26104 | 457 ft | 14 kts | 86° |
| 2026-05-06 14:25 | 47.43680 | 19.26247 | 457 ft | 17 kts | 88° |
| 2026-05-06 14:25 | 47.43632 | 19.26388 | 458 ft | 12 kts | 156° |
| 2026-05-06 14:25 | 47.43602 | 19.26364 | 456 ft | 6 kts | 223° |
| 2026-05-06 14:26 | 47.43591 | 19.26349 | 457 ft | 0 kts | 223° |